Weather at Central Wyoming Regional Airport

Public forecast

Using degrees Fahrenheit for public forecast. Weather courtesy of forecast.io.

Current aviation weather report (METAR) for Central Wyoming Regional Airport

2024/06/14 10:53 (retrieved 1 hour ago)

KRIW 141053Z AUTO 32005KT 10SM CLR 17/08 A3002 RMK AO2 SLP089 T01720083

Aviation forecast (TAF) for Central Wyoming Regional Airport

2024/06/14 06:24 (retrieved 6 hours ago)

TAF KRIW 140521Z 1406/1506 06010KT P6SM SCT080 BKN150 FM140800 VRB06KT P6SM SCT100 BKN150 FM141700 24014G25KT P6SM SCT120 FM150000 30012G20KT P6SM SCT150